Terminal Aerodrome Forecast
Issued by NWS

Home | Current Version | Previous Version | Text Only | Print | Product List | Glossary On
Versions: 1 2 3 4 5 6 7 8 9 10 11 12 13
442
FTUS46 KSGX 230339 AAA
TAFPSP
TAF AMD
KPSP 230339Z 2304/2324 33014KT P6SM SKC
     FM230600 VRB05KT P6SM SKC
     FM232100 12010KT P6SM SKC=

USA.gov is the U.S. government's official web portal to all federal, state and local government web resources and services.